sensor_id;sensor_type;location;lat;lon;timestamp;P1;durP1;ratioP1;P2;durP2;ratioP2
57443;SDS011;43289;52.962;6.196;2024-02-28T00:00:51;61.47;;;23.55;;
57443;SDS011;43289;52.962;6.196;2024-02-28T00:03:19;56.15;;;23.77;;
57443;SDS011;43289;52.962;6.196;2024-02-28T00:05:46;69.22;;;24.23;;
57443;SDS011;43289;52.962;6.196;2024-02-28T00:08:28;80.00;;;26.77;;
57443;SDS011;43289;52.962;6.196;2024-02-28T00:10:54;59.63;;;24.88;;
57443;SDS011;43289;52.962;6.196;2024-02-28T00:13:21;84.38;;;27.98;;
57443;SDS011;43289;52.962;6.196;2024-02-28T00:15:49;105.95;;;29.88;;
57443;SDS011;43289;52.962;6.196;2024-02-28T00:18:15;140.48;;;35.33;;
57443;SDS011;43289;52.962;6.196;2024-02-28T00:20:43;94.13;;;29.42;;
57443;SDS011;43289;52.962;6.196;2024-02-28T00:23:11;85.50;;;28.33;;
57443;SDS011;43289;52.962;6.196;2024-02-28T00:25:37;85.65;;;26.80;;
57443;SDS011;43289;52.962;6.196;2024-02-28T00:28:03;79.53;;;26.13;;
57443;SDS011;43289;52.962;6.196;2024-02-28T00:30:29;105.05;;;30.73;;
57443;SDS011;43289;52.962;6.196;2024-02-28T00:32:55;106.18;;;29.40;;
57443;SDS011;43289;52.962;6.196;2024-02-28T00:35:21;100.85;;;30.35;;
57443;SDS011;43289;52.962;6.196;2024-02-28T00:37:47;98.30;;;27.90;;
57443;SDS011;43289;52.962;6.196;2024-02-28T00:40:13;87.30;;;28.77;;
57443;SDS011;43289;52.962;6.196;2024-02-28T00:42:39;74.53;;;25.98;;
57443;SDS011;43289;52.962;6.196;2024-02-28T00:45:05;113.57;;;31.90;;
57443;SDS011;43289;52.962;6.196;2024-02-28T00:47:31;81.22;;;26.80;;
57443;SDS011;43289;52.962;6.196;2024-02-28T00:49:57;95.85;;;28.98;;
57443;SDS011;43289;52.962;6.196;2024-02-28T00:52:23;74.25;;;26.50;;
57443;SDS011;43289;52.962;6.196;2024-02-28T00:54:50;76.93;;;25.65;;
57443;SDS011;43289;52.962;6.196;2024-02-28T00:57:16;82.93;;;27.60;;
57443;SDS011;43289;52.962;6.196;2024-02-28T00:59:43;59.72;;;25.98;;
57443;SDS011;43289;52.962;6.196;2024-02-28T01:02:09;81.07;;;26.55;;
57443;SDS011;43289;52.962;6.196;2024-02-28T01:04:36;102.93;;;29.33;;
57443;SDS011;43289;52.962;6.196;2024-02-28T01:07:02;75.05;;;26.15;;
57443;SDS011;43289;52.962;6.196;2024-02-28T01:09:28;66.20;;;25.50;;
57443;SDS011;43289;52.962;6.196;2024-02-28T01:11:54;74.90;;;26.25;;
57443;SDS011;43289;52.962;6.196;2024-02-28T01:14:20;118.40;;;30.55;;
57443;SDS011;43289;52.962;6.196;2024-02-28T01:16:46;109.88;;;31.17;;
57443;SDS011;43289;52.962;6.196;2024-02-28T01:19:12;70.60;;;26.23;;
57443;SDS011;43289;52.962;6.196;2024-02-28T01:21:38;68.50;;;24.95;;
57443;SDS011;43289;52.962;6.196;2024-02-28T01:24:04;113.97;;;33.50;;
57443;SDS011;43289;52.962;6.196;2024-02-28T01:26:31;80.60;;;28.30;;
57443;SDS011;43289;52.962;6.196;2024-02-28T01:28:57;68.85;;;25.85;;
57443;SDS011;43289;52.962;6.196;2024-02-28T01:31:23;90.22;;;30.38;;
57443;SDS011;43289;52.962;6.196;2024-02-28T01:33:49;92.38;;;29.90;;
57443;SDS011;43289;52.962;6.196;2024-02-28T01:36:15;74.95;;;29.15;;
57443;SDS011;43289;52.962;6.196;2024-02-28T01:38:41;71.50;;;28.30;;
57443;SDS011;43289;52.962;6.196;2024-02-28T01:44:04;79.07;;;29.05;;
57443;SDS011;43289;52.962;6.196;2024-02-28T01:46:30;95.18;;;30.88;;
57443;SDS011;43289;52.962;6.196;2024-02-28T01:48:57;78.70;;;29.20;;
57443;SDS011;43289;52.962;6.196;2024-02-28T01:51:25;72.90;;;28.83;;
57443;SDS011;43289;52.962;6.196;2024-02-28T01:53:54;82.32;;;30.33;;
57443;SDS011;43289;52.962;6.196;2024-02-28T01:56:20;75.80;;;30.33;;
57443;SDS011;43289;52.962;6.196;2024-02-28T01:58:49;89.75;;;30.83;;
57443;SDS011;43289;52.962;6.196;2024-02-28T02:01:15;85.88;;;31.75;;
57443;SDS011;43289;52.962;6.196;2024-02-28T02:03:45;61.72;;;27.00;;
57443;SDS011;43289;52.962;6.196;2024-02-28T02:06:11;73.15;;;27.80;;
57443;SDS011;43289;52.962;6.196;2024-02-28T02:08:37;72.65;;;29.50;;
57443;SDS011;43289;52.962;6.196;2024-02-28T02:11:04;62.30;;;27.25;;
57443;SDS011;43289;52.962;6.196;2024-02-28T02:13:31;70.78;;;31.13;;
57443;SDS011;43289;52.962;6.196;2024-02-28T02:15:57;82.07;;;30.45;;
57443;SDS011;43289;52.962;6.196;2024-02-28T02:18:23;76.05;;;31.13;;
57443;SDS011;43289;52.962;6.196;2024-02-28T02:20:50;77.65;;;31.92;;
57443;SDS011;43289;52.962;6.196;2024-02-28T02:23:16;85.18;;;31.90;;
57443;SDS011;43289;52.962;6.196;2024-02-28T02:25:45;91.05;;;34.72;;
57443;SDS011;43289;52.962;6.196;2024-02-28T02:28:11;87.85;;;32.45;;
57443;SDS011;43289;52.962;6.196;2024-02-28T02:30:38;70.65;;;30.55;;
57443;SDS011;43289;52.962;6.196;2024-02-28T02:33:05;84.90;;;32.78;;
57443;SDS011;43289;52.962;6.196;2024-02-28T02:35:31;83.55;;;32.53;;
57443;SDS011;43289;52.962;6.196;2024-02-28T02:38:05;67.00;;;30.90;;
57443;SDS011;43289;52.962;6.196;2024-02-28T02:40:31;68.65;;;29.55;;
57443;SDS011;43289;52.962;6.196;2024-02-28T02:42:57;79.80;;;30.55;;
57443;SDS011;43289;52.962;6.196;2024-02-28T02:48:11;73.20;;;31.58;;
57443;SDS011;43289;52.962;6.196;2024-02-28T02:50:37;92.65;;;33.28;;
57443;SDS011;43289;52.962;6.196;2024-02-28T02:53:10;61.55;;;29.83;;
57443;SDS011;43289;52.962;6.196;2024-02-28T02:55:36;79.80;;;29.30;;
57443;SDS011;43289;52.962;6.196;2024-02-28T02:58:02;82.30;;;31.17;;
57443;SDS011;43289;52.962;6.196;2024-02-28T03:00:33;73.78;;;29.45;;
57443;SDS011;43289;52.962;6.196;2024-02-28T03:02:59;78.65;;;32.58;;
57443;SDS011;43289;52.962;6.196;2024-02-28T03:05:25;75.95;;;29.77;;
57443;SDS011;43289;52.962;6.196;2024-02-28T03:07:51;76.97;;;30.58;;
57443;SDS011;43289;52.962;6.196;2024-02-28T03:10:17;71.65;;;29.88;;
57443;SDS011;43289;52.962;6.196;2024-02-28T03:12:43;74.97;;;29.77;;
57443;SDS011;43289;52.962;6.196;2024-02-28T03:15:09;68.15;;;30.30;;
57443;SDS011;43289;52.962;6.196;2024-02-28T03:17:35;64.65;;;28.88;;
57443;SDS011;43289;52.962;6.196;2024-02-28T03:20:01;69.63;;;29.35;;
57443;SDS011;43289;52.962;6.196;2024-02-28T03:22:28;61.10;;;26.88;;
57443;SDS011;43289;52.962;6.196;2024-02-28T03:24:54;61.00;;;28.88;;
57443;SDS011;43289;52.962;6.196;2024-02-28T03:27:20;61.78;;;27.48;;
57443;SDS011;43289;52.962;6.196;2024-02-28T03:29:46;56.03;;;27.27;;
57443;SDS011;43289;52.962;6.196;2024-02-28T03:32:21;67.40;;;28.08;;
57443;SDS011;43289;52.962;6.196;2024-02-28T03:34:47;66.90;;;27.83;;
57443;SDS011;43289;52.962;6.196;2024-02-28T03:37:14;64.25;;;28.10;;
57443;SDS011;43289;52.962;6.196;2024-02-28T03:39:40;64.85;;;27.40;;
57443;SDS011;43289;52.962;6.196;2024-02-28T03:42:06;59.65;;;27.02;;
57443;SDS011;43289;52.962;6.196;2024-02-28T03:44:32;60.30;;;25.88;;
57443;SDS011;43289;52.962;6.196;2024-02-28T03:46:58;58.08;;;26.42;;
57443;SDS011;43289;52.962;6.196;2024-02-28T03:49:24;55.10;;;25.42;;
57443;SDS011;43289;52.962;6.196;2024-02-28T03:51:50;53.38;;;25.50;;
57443;SDS011;43289;52.962;6.196;2024-02-28T03:54:16;55.17;;;26.20;;
57443;SDS011;43289;52.962;6.196;2024-02-28T03:56:42;57.88;;;27.27;;
57443;SDS011;43289;52.962;6.196;2024-02-28T03:59:08;62.42;;;26.58;;
57443;SDS011;43289;52.962;6.196;2024-02-28T04:01:34;56.83;;;26.33;;
57443;SDS011;43289;52.962;6.196;2024-02-28T04:04:00;52.33;;;25.38;;
57443;SDS011;43289;52.962;6.196;2024-02-28T04:06:27;59.20;;;25.70;;
57443;SDS011;43289;52.962;6.196;2024-02-28T04:08:53;52.35;;;25.77;;
57443;SDS011;43289;52.962;6.196;2024-02-28T04:11:19;52.50;;;24.67;;
57443;SDS011;43289;52.962;6.196;2024-02-28T04:13:45;50.53;;;24.73;;
57443;SDS011;43289;52.962;6.196;2024-02-28T04:16:12;51.50;;;24.35;;
57443;SDS011;43289;52.962;6.196;2024-02-28T04:18:38;52.58;;;23.33;;
57443;SDS011;43289;52.962;6.196;2024-02-28T04:21:04;47.45;;;24.48;;
57443;SDS011;43289;52.962;6.196;2024-02-28T04:23:30;49.00;;;25.88;;
57443;SDS011;43289;52.962;6.196;2024-02-28T04:25:56;50.33;;;25.05;;
57443;SDS011;43289;52.962;6.196;2024-02-28T04:28:22;57.30;;;25.45;;
57443;SDS011;43289;52.962;6.196;2024-02-28T04:30:48;58.58;;;26.70;;
57443;SDS011;43289;52.962;6.196;2024-02-28T04:33:14;55.15;;;26.48;;
57443;SDS011;43289;52.962;6.196;2024-02-28T04:35:47;51.55;;;26.42;;
57443;SDS011;43289;52.962;6.196;2024-02-28T04:38:13;50.90;;;23.75;;
57443;SDS011;43289;52.962;6.196;2024-02-28T04:40:39;51.80;;;25.85;;
57443;SDS011;43289;52.962;6.196;2024-02-28T04:45:54;50.28;;;26.45;;
57443;SDS011;43289;52.962;6.196;2024-02-28T04:48:20;48.50;;;25.48;;
57443;SDS011;43289;52.962;6.196;2024-02-28T04:50:46;47.67;;;24.30;;
57443;SDS011;43289;52.962;6.196;2024-02-28T04:56:18;51.35;;;25.15;;
57443;SDS011;43289;52.962;6.196;2024-02-28T04:58:44;50.40;;;23.95;;
57443;SDS011;43289;52.962;6.196;2024-02-28T05:01:20;49.28;;;25.27;;
57443;SDS011;43289;52.962;6.196;2024-02-28T05:03:46;49.83;;;24.27;;
57443;SDS011;43289;52.962;6.196;2024-02-28T05:06:12;51.75;;;26.48;;
57443;SDS011;43289;52.962;6.196;2024-02-28T05:08:38;49.40;;;24.27;;
57443;SDS011;43289;52.962;6.196;2024-02-28T05:11:04;47.15;;;24.17;;
57443;SDS011;43289;52.962;6.196;2024-02-28T05:13:39;56.58;;;27.67;;
57443;SDS011;43289;52.962;6.196;2024-02-28T05:16:11;48.30;;;24.45;;
57443;SDS011;43289;52.962;6.196;2024-02-28T05:18:37;54.58;;;24.98;;
57443;SDS011;43289;52.962;6.196;2024-02-28T05:21:08;51.25;;;25.83;;
57443;SDS011;43289;52.962;6.196;2024-02-28T05:23:34;46.42;;;23.83;;
57443;SDS011;43289;52.962;6.196;2024-02-28T05:26:00;49.63;;;24.40;;
57443;SDS011;43289;52.962;6.196;2024-02-28T05:28:29;50.35;;;23.77;;
57443;SDS011;43289;52.962;6.196;2024-02-28T05:30:55;49.55;;;24.15;;
57443;SDS011;43289;52.962;6.196;2024-02-28T05:33:22;53.75;;;24.60;;
57443;SDS011;43289;52.962;6.196;2024-02-28T05:35:48;51.30;;;24.80;;
57443;SDS011;43289;52.962;6.196;2024-02-28T05:38:14;52.05;;;24.05;;
57443;SDS011;43289;52.962;6.196;2024-02-28T05:40:43;54.33;;;25.27;;
57443;SDS011;43289;52.962;6.196;2024-02-28T05:43:09;51.40;;;25.58;;
57443;SDS011;43289;52.962;6.196;2024-02-28T05:45:35;48.67;;;26.00;;
57443;SDS011;43289;52.962;6.196;2024-02-28T05:48:01;55.63;;;25.70;;
57443;SDS011;43289;52.962;6.196;2024-02-28T05:50:27;51.42;;;26.55;;
57443;SDS011;43289;52.962;6.196;2024-02-28T05:55:52;55.35;;;25.48;;
57443;SDS011;43289;52.962;6.196;2024-02-28T05:58:18;53.40;;;26.92;;
57443;SDS011;43289;52.962;6.196;2024-02-28T06:00:44;55.63;;;26.65;;
57443;SDS011;43289;52.962;6.196;2024-02-28T06:03:10;54.97;;;27.92;;
57443;SDS011;43289;52.962;6.196;2024-02-28T06:05:37;52.63;;;27.15;;
57443;SDS011;43289;52.962;6.196;2024-02-28T06:08:03;52.72;;;26.67;;
57443;SDS011;43289;52.962;6.196;2024-02-28T06:10:29;59.15;;;26.80;;
57443;SDS011;43289;52.962;6.196;2024-02-28T06:12:55;59.13;;;25.17;;
57443;SDS011;43289;52.962;6.196;2024-02-28T06:15:21;52.97;;;26.33;;
57443;SDS011;43289;52.962;6.196;2024-02-28T06:21:09;50.65;;;25.50;;
57443;SDS011;43289;52.962;6.196;2024-02-28T06:23:35;48.00;;;25.50;;
57443;SDS011;43289;52.962;6.196;2024-02-28T06:26:01;47.63;;;25.65;;
57443;SDS011;43289;52.962;6.196;2024-02-28T06:28:27;43.20;;;23.55;;
57443;SDS011;43289;52.962;6.196;2024-02-28T06:30:53;47.75;;;24.30;;
57443;SDS011;43289;52.962;6.196;2024-02-28T06:33:19;49.92;;;25.38;;
57443;SDS011;43289;52.962;6.196;2024-02-28T06:35:46;48.05;;;24.88;;
57443;SDS011;43289;52.962;6.196;2024-02-28T06:38:12;47.85;;;24.40;;
57443;SDS011;43289;52.962;6.196;2024-02-28T06:40:38;47.33;;;24.50;;
57443;SDS011;43289;52.962;6.196;2024-02-28T06:43:04;51.70;;;25.85;;
57443;SDS011;43289;52.962;6.196;2024-02-28T06:45:30;49.15;;;25.52;;
57443;SDS011;43289;52.962;6.196;2024-02-28T06:47:57;42.63;;;24.13;;
57443;SDS011;43289;52.962;6.196;2024-02-28T06:50:23;49.55;;;25.90;;
57443;SDS011;43289;52.962;6.196;2024-02-28T06:56:11;46.78;;;25.00;;
57443;SDS011;43289;52.962;6.196;2024-02-28T06:58:37;44.83;;;23.70;;
57443;SDS011;43289;52.962;6.196;2024-02-28T07:01:03;49.63;;;25.65;;
57443;SDS011;43289;52.962;6.196;2024-02-28T07:03:32;48.95;;;24.95;;
57443;SDS011;43289;52.962;6.196;2024-02-28T07:05:58;49.28;;;25.77;;
57443;SDS011;43289;52.962;6.196;2024-02-28T07:08:24;48.67;;;26.25;;
57443;SDS011;43289;52.962;6.196;2024-02-28T07:10:51;48.33;;;25.60;;
57443;SDS011;43289;52.962;6.196;2024-02-28T07:13:21;52.35;;;25.92;;
57443;SDS011;43289;52.962;6.196;2024-02-28T07:15:48;50.20;;;27.02;;
57443;SDS011;43289;52.962;6.196;2024-02-28T07:18:14;49.70;;;25.10;;
57443;SDS011;43289;52.962;6.196;2024-02-28T07:20:40;47.78;;;26.48;;
57443;SDS011;43289;52.962;6.196;2024-02-28T07:26:28;52.67;;;24.38;;
57443;SDS011;43289;52.962;6.196;2024-02-28T07:28:54;47.08;;;24.70;;
57443;SDS011;43289;52.962;6.196;2024-02-28T07:31:21;42.95;;;24.02;;
57443;SDS011;43289;52.962;6.196;2024-02-28T07:33:50;48.70;;;24.33;;
57443;SDS011;43289;52.962;6.196;2024-02-28T07:36:16;46.83;;;26.48;;
57443;SDS011;43289;52.962;6.196;2024-02-28T07:38:43;41.55;;;23.65;;
57443;SDS011;43289;52.962;6.196;2024-02-28T07:41:09;40.75;;;24.95;;
57443;SDS011;43289;52.962;6.196;2024-02-28T07:43:35;43.13;;;23.02;;
57443;SDS011;43289;52.962;6.196;2024-02-28T07:46:07;46.47;;;23.40;;
57443;SDS011;43289;52.962;6.196;2024-02-28T07:48:34;43.03;;;23.40;;
57443;SDS011;43289;52.962;6.196;2024-02-28T07:51:00;41.40;;;24.00;;
57443;SDS011;43289;52.962;6.196;2024-02-28T07:53:26;45.13;;;24.25;;
57443;SDS011;43289;52.962;6.196;2024-02-28T07:55:52;45.60;;;24.02;;
57443;SDS011;43289;52.962;6.196;2024-02-28T07:58:18;46.38;;;23.63;;
57443;SDS011;43289;52.962;6.196;2024-02-28T08:00:44;40.20;;;22.25;;
57443;SDS011;43289;52.962;6.196;2024-02-28T08:03:10;38.60;;;23.80;;
57443;SDS011;43289;52.962;6.196;2024-02-28T08:05:36;43.25;;;24.10;;
57443;SDS011;43289;52.962;6.196;2024-02-28T08:08:22;37.30;;;23.25;;
57443;SDS011;43289;52.962;6.196;2024-02-28T08:10:48;41.40;;;23.42;;
57443;SDS011;43289;52.962;6.196;2024-02-28T08:13:16;47.00;;;24.80;;
57443;SDS011;43289;52.962;6.196;2024-02-28T08:15:42;44.10;;;25.38;;
57443;SDS011;43289;52.962;6.196;2024-02-28T08:18:08;41.88;;;23.48;;
57443;SDS011;43289;52.962;6.196;2024-02-28T08:20:36;45.90;;;23.77;;
57443;SDS011;43289;52.962;6.196;2024-02-28T08:23:03;48.67;;;26.67;;
57443;SDS011;43289;52.962;6.196;2024-02-28T08:25:29;52.45;;;25.73;;
57443;SDS011;43289;52.962;6.196;2024-02-28T08:27:55;51.10;;;27.77;;
57443;SDS011;43289;52.962;6.196;2024-02-28T08:30:21;48.35;;;26.30;;
57443;SDS011;43289;52.962;6.196;2024-02-28T08:32:47;47.50;;;25.55;;
57443;SDS011;43289;52.962;6.196;2024-02-28T08:35:13;51.72;;;28.05;;
57443;SDS011;43289;52.962;6.196;2024-02-28T08:37:39;47.38;;;26.85;;
57443;SDS011;43289;52.962;6.196;2024-02-28T08:40:06;54.45;;;26.38;;
57443;SDS011;43289;52.962;6.196;2024-02-28T08:42:33;48.40;;;25.67;;
57443;SDS011;43289;52.962;6.196;2024-02-28T08:44:59;51.15;;;26.45;;
57443;SDS011;43289;52.962;6.196;2024-02-28T08:47:26;54.10;;;28.73;;
57443;SDS011;43289;52.962;6.196;2024-02-28T08:49:52;55.25;;;28.23;;
57443;SDS011;43289;52.962;6.196;2024-02-28T08:52:19;57.40;;;27.23;;
57443;SDS011;43289;52.962;6.196;2024-02-28T08:54:45;46.00;;;26.27;;
57443;SDS011;43289;52.962;6.196;2024-02-28T08:57:12;52.85;;;25.90;;
57443;SDS011;43289;52.962;6.196;2024-02-28T08:59:38;52.92;;;27.73;;
57443;SDS011;43289;52.962;6.196;2024-02-28T09:02:05;55.13;;;29.70;;
57443;SDS011;43289;52.962;6.196;2024-02-28T09:04:31;51.65;;;27.08;;
57443;SDS011;43289;52.962;6.196;2024-02-28T09:06:57;47.00;;;27.58;;
57443;SDS011;43289;52.962;6.196;2024-02-28T09:09:23;49.72;;;27.25;;
57443;SDS011;43289;52.962;6.196;2024-02-28T09:11:49;51.30;;;28.08;;
57443;SDS011;43289;52.962;6.196;2024-02-28T09:14:15;52.35;;;28.38;;
57443;SDS011;43289;52.962;6.196;2024-02-28T09:16:41;50.47;;;27.17;;
57443;SDS011;43289;52.962;6.196;2024-02-28T09:19:07;49.28;;;28.10;;
57443;SDS011;43289;52.962;6.196;2024-02-28T09:21:33;43.33;;;26.52;;
57443;SDS011;43289;52.962;6.196;2024-02-28T09:24:00;42.40;;;24.42;;
57443;SDS011;43289;52.962;6.196;2024-02-28T09:26:26;46.00;;;27.13;;
57443;SDS011;43289;52.962;6.196;2024-02-28T09:28:52;47.55;;;27.15;;
57443;SDS011;43289;52.962;6.196;2024-02-28T09:31:19;49.42;;;26.40;;
57443;SDS011;43289;52.962;6.196;2024-02-28T09:33:45;42.58;;;26.50;;
57443;SDS011;43289;52.962;6.196;2024-02-28T09:36:12;43.35;;;24.52;;
57443;SDS011;43289;52.962;6.196;2024-02-28T09:38:38;42.28;;;25.88;;
57443;SDS011;43289;52.962;6.196;2024-02-28T09:41:04;46.42;;;25.40;;
57443;SDS011;43289;52.962;6.196;2024-02-28T09:43:36;44.40;;;25.52;;
57443;SDS011;43289;52.962;6.196;2024-02-28T09:46:06;45.75;;;28.63;;
57443;SDS011;43289;52.962;6.196;2024-02-28T09:48:36;44.85;;;27.55;;
57443;SDS011;43289;52.962;6.196;2024-02-28T09:51:04;48.75;;;26.23;;
57443;SDS011;43289;52.962;6.196;2024-02-28T09:53:30;46.03;;;27.50;;
57443;SDS011;43289;52.962;6.196;2024-02-28T09:55:56;43.70;;;26.65;;
57443;SDS011;43289;52.962;6.196;2024-02-28T09:58:22;40.92;;;24.05;;
57443;SDS011;43289;52.962;6.196;2024-02-28T10:00:48;39.03;;;25.08;;
57443;SDS011;43289;52.962;6.196;2024-02-28T10:03:18;41.05;;;25.13;;
57443;SDS011;43289;52.962;6.196;2024-02-28T10:05:45;35.92;;;24.90;;
57443;SDS011;43289;52.962;6.196;2024-02-28T10:08:12;36.08;;;24.58;;
57443;SDS011;43289;52.962;6.196;2024-02-28T10:10:48;37.78;;;24.08;;
57443;SDS011;43289;52.962;6.196;2024-02-28T10:13:19;39.33;;;24.95;;
57443;SDS011;43289;52.962;6.196;2024-02-28T10:15:45;37.85;;;25.08;;
57443;SDS011;43289;52.962;6.196;2024-02-28T10:18:11;41.35;;;25.63;;
57443;SDS011;43289;52.962;6.196;2024-02-28T10:20:37;40.08;;;25.52;;
57443;SDS011;43289;52.962;6.196;2024-02-28T10:23:04;40.50;;;25.73;;
57443;SDS011;43289;52.962;6.196;2024-02-28T10:25:31;37.30;;;25.08;;
57443;SDS011;43289;52.962;6.196;2024-02-28T10:28:00;42.47;;;27.50;;
57443;SDS011;43289;52.962;6.196;2024-02-28T10:30:27;42.85;;;26.25;;
57443;SDS011;43289;52.962;6.196;2024-02-28T10:32:53;44.10;;;25.83;;
57443;SDS011;43289;52.962;6.196;2024-02-28T10:35:19;41.00;;;25.67;;
57443;SDS011;43289;52.962;6.196;2024-02-28T10:37:46;43.05;;;28.27;;
57443;SDS011;43289;52.962;6.196;2024-02-28T10:40:13;42.92;;;26.38;;
57443;SDS011;43289;52.962;6.196;2024-02-28T10:42:42;39.20;;;26.98;;
57443;SDS011;43289;52.962;6.196;2024-02-28T10:45:09;39.63;;;25.33;;
57443;SDS011;43289;52.962;6.196;2024-02-28T10:47:37;40.95;;;26.88;;
57443;SDS011;43289;52.962;6.196;2024-02-28T10:50:04;41.60;;;26.25;;
57443;SDS011;43289;52.962;6.196;2024-02-28T10:52:30;42.28;;;26.23;;
57443;SDS011;43289;52.962;6.196;2024-02-28T10:54:58;41.28;;;25.60;;
57443;SDS011;43289;52.962;6.196;2024-02-28T10:57:25;41.22;;;26.38;;
57443;SDS011;43289;52.962;6.196;2024-02-28T10:59:52;39.85;;;26.23;;
57443;SDS011;43289;52.962;6.196;2024-02-28T11:02:19;33.63;;;24.42;;
57443;SDS011;43289;52.962;6.196;2024-02-28T11:04:46;39.58;;;27.17;;
57443;SDS011;43289;52.962;6.196;2024-02-28T11:07:18;38.25;;;26.35;;
57443;SDS011;43289;52.962;6.196;2024-02-28T11:09:44;37.65;;;25.70;;
57443;SDS011;43289;52.962;6.196;2024-02-28T11:12:32;37.15;;;24.95;;
57443;SDS011;43289;52.962;6.196;2024-02-28T11:15:01;36.10;;;24.55;;
57443;SDS011;43289;52.962;6.196;2024-02-28T11:17:28;33.90;;;24.33;;
57443;SDS011;43289;52.962;6.196;2024-02-28T11:19:56;32.35;;;23.88;;
57443;SDS011;43289;52.962;6.196;2024-02-28T11:22:22;35.53;;;25.83;;
57443;SDS011;43289;52.962;6.196;2024-02-28T11:24:48;33.92;;;24.30;;
57443;SDS011;43289;52.962;6.196;2024-02-28T11:27:17;34.80;;;25.50;;
57443;SDS011;43289;52.962;6.196;2024-02-28T11:29:43;33.83;;;23.73;;
57443;SDS011;43289;52.962;6.196;2024-02-28T11:32:12;31.77;;;23.45;;
57443;SDS011;43289;52.962;6.196;2024-02-28T11:34:38;33.95;;;24.38;;
57443;SDS011;43289;52.962;6.196;2024-02-28T11:37:05;35.78;;;25.25;;
57443;SDS011;43289;52.962;6.196;2024-02-28T11:39:32;30.88;;;22.63;;
57443;SDS011;43289;52.962;6.196;2024-02-28T11:42:08;28.23;;;21.80;;
57443;SDS011;43289;52.962;6.196;2024-02-28T11:44:34;26.80;;;21.88;;
57443;SDS011;43289;52.962;6.196;2024-02-28T11:47:00;28.85;;;21.65;;
57443;SDS011;43289;52.962;6.196;2024-02-28T11:49:27;29.83;;;20.45;;
57443;SDS011;43289;52.962;6.196;2024-02-28T11:51:53;31.65;;;21.15;;
57443;SDS011;43289;52.962;6.196;2024-02-28T11:54:20;30.27;;;21.08;;
57443;SDS011;43289;52.962;6.196;2024-02-28T11:56:46;29.83;;;21.40;;
57443;SDS011;43289;52.962;6.196;2024-02-28T11:59:12;28.67;;;20.50;;
57443;SDS011;43289;52.962;6.196;2024-02-28T12:01:40;27.73;;;20.88;;
57443;SDS011;43289;52.962;6.196;2024-02-28T12:04:08;29.00;;;20.35;;
57443;SDS011;43289;52.962;6.196;2024-02-28T12:06:35;32.28;;;22.45;;
57443;SDS011;43289;52.962;6.196;2024-02-28T12:09:08;27.33;;;21.20;;
57443;SDS011;43289;52.962;6.196;2024-02-28T12:11:35;29.88;;;21.98;;
57443;SDS011;43289;52.962;6.196;2024-02-28T12:14:06;30.48;;;21.90;;
57443;SDS011;43289;52.962;6.196;2024-02-28T12:16:34;29.85;;;22.17;;
57443;SDS011;43289;52.962;6.196;2024-02-28T12:19:08;31.45;;;22.50;;
57443;SDS011;43289;52.962;6.196;2024-02-28T12:21:36;29.35;;;22.27;;
57443;SDS011;43289;52.962;6.196;2024-02-28T12:24:02;28.63;;;21.10;;
57443;SDS011;43289;52.962;6.196;2024-02-28T12:26:29;30.20;;;21.27;;
57443;SDS011;43289;52.962;6.196;2024-02-28T12:28:55;28.13;;;21.70;;
57443;SDS011;43289;52.962;6.196;2024-02-28T12:31:21;27.38;;;21.42;;
57443;SDS011;43289;52.962;6.196;2024-02-28T12:33:48;30.77;;;23.35;;
57443;SDS011;43289;52.962;6.196;2024-02-28T12:36:14;32.10;;;23.10;;
57443;SDS011;43289;52.962;6.196;2024-02-28T12:38:40;28.15;;;21.42;;
57443;SDS011;43289;52.962;6.196;2024-02-28T12:41:08;28.15;;;21.48;;
57443;SDS011;43289;52.962;6.196;2024-02-28T12:43:35;27.05;;;21.20;;
57443;SDS011;43289;52.962;6.196;2024-02-28T12:46:01;28.83;;;21.88;;
57443;SDS011;43289;52.962;6.196;2024-02-28T12:48:27;27.25;;;22.20;;
57443;SDS011;43289;52.962;6.196;2024-02-28T12:50:54;32.28;;;24.45;;
57443;SDS011;43289;52.962;6.196;2024-02-28T12:53:20;26.95;;;21.10;;
57443;SDS011;43289;52.962;6.196;2024-02-28T12:55:46;29.45;;;22.58;;
57443;SDS011;43289;52.962;6.196;2024-02-28T12:58:12;27.58;;;22.08;;
57443;SDS011;43289;52.962;6.196;2024-02-28T13:00:38;27.33;;;22.55;;
57443;SDS011;43289;52.962;6.196;2024-02-28T13:03:04;34.78;;;24.95;;
57443;SDS011;43289;52.962;6.196;2024-02-28T13:05:31;30.00;;;24.17;;
57443;SDS011;43289;52.962;6.196;2024-02-28T13:07:57;29.70;;;23.75;;
57443;SDS011;43289;52.962;6.196;2024-02-28T13:10:23;31.75;;;24.48;;
57443;SDS011;43289;52.962;6.196;2024-02-28T13:12:50;30.60;;;24.27;;
57443;SDS011;43289;52.962;6.196;2024-02-28T13:15:17;33.15;;;26.30;;
57443;SDS011;43289;52.962;6.196;2024-02-28T13:17:43;31.60;;;25.60;;
57443;SDS011;43289;52.962;6.196;2024-02-28T13:20:12;32.75;;;25.75;;
57443;SDS011;43289;52.962;6.196;2024-02-28T13:22:38;34.72;;;26.05;;
57443;SDS011;43289;52.962;6.196;2024-02-28T13:25:04;32.33;;;24.00;;
57443;SDS011;43289;52.962;6.196;2024-02-28T13:27:30;32.00;;;25.38;;
57443;SDS011;43289;52.962;6.196;2024-02-28T13:29:56;33.95;;;26.27;;
57443;SDS011;43289;52.962;6.196;2024-02-28T13:32:22;35.33;;;25.73;;
57443;SDS011;43289;52.962;6.196;2024-02-28T13:34:48;34.58;;;25.30;;
57443;SDS011;43289;52.962;6.196;2024-02-28T13:37:14;34.20;;;24.83;;
57443;SDS011;43289;52.962;6.196;2024-02-28T13:39:40;33.17;;;25.50;;
57443;SDS011;43289;52.962;6.196;2024-02-28T13:42:06;32.60;;;24.35;;
57443;SDS011;43289;52.962;6.196;2024-02-28T13:44:34;32.88;;;24.75;;
57443;SDS011;43289;52.962;6.196;2024-02-28T13:47:01;34.20;;;27.42;;
57443;SDS011;43289;52.962;6.196;2024-02-28T13:49:28;31.55;;;26.15;;
57443;SDS011;43289;52.962;6.196;2024-02-28T13:51:54;35.38;;;26.98;;
57443;SDS011;43289;52.962;6.196;2024-02-28T13:54:20;34.50;;;26.50;;
57443;SDS011;43289;52.962;6.196;2024-02-28T13:56:46;33.50;;;25.83;;
57443;SDS011;43289;52.962;6.196;2024-02-28T13:59:12;31.92;;;25.05;;
57443;SDS011;43289;52.962;6.196;2024-02-28T14:01:38;31.40;;;25.17;;
57443;SDS011;43289;52.962;6.196;2024-02-28T14:04:04;34.08;;;24.80;;
57443;SDS011;43289;52.962;6.196;2024-02-28T14:06:30;31.90;;;25.02;;
57443;SDS011;43289;52.962;6.196;2024-02-28T14:08:56;33.65;;;25.40;;
57443;SDS011;43289;52.962;6.196;2024-02-28T14:11:22;32.88;;;24.60;;
57443;SDS011;43289;52.962;6.196;2024-02-28T14:13:49;34.25;;;25.13;;
57443;SDS011;43289;52.962;6.196;2024-02-28T14:16:15;31.30;;;25.15;;
57443;SDS011;43289;52.962;6.196;2024-02-28T14:18:41;31.15;;;25.25;;
57443;SDS011;43289;52.962;6.196;2024-02-28T14:21:07;33.95;;;25.33;;
57443;SDS011;43289;52.962;6.196;2024-02-28T14:23:33;32.75;;;25.65;;
57443;SDS011;43289;52.962;6.196;2024-02-28T14:25:59;31.70;;;25.63;;
57443;SDS011;43289;52.962;6.196;2024-02-28T14:28:25;33.53;;;25.63;;
57443;SDS011;43289;52.962;6.196;2024-02-28T14:30:51;36.38;;;27.30;;
57443;SDS011;43289;52.962;6.196;2024-02-28T14:33:17;34.03;;;25.90;;
57443;SDS011;43289;52.962;6.196;2024-02-28T14:35:43;33.30;;;25.70;;
57443;SDS011;43289;52.962;6.196;2024-02-28T14:38:09;33.50;;;25.00;;
57443;SDS011;43289;52.962;6.196;2024-02-28T14:40:35;31.77;;;25.95;;
57443;SDS011;43289;52.962;6.196;2024-02-28T14:43:01;32.72;;;25.00;;